Relevés horaires Chievres (Belgique)


Relevés horaires à Chievres - Vendredi 06 Mai 2016
Heure UTC1 Température [°C] Vent [km/h] Hum. [%] Pres.4 [hPa] Visi. [Km] Nébu. [octa] Préc.5 [mm] Cond.
2m. Res. Ros. Dir.2 Vit. Moy. Raf.3
23:00 11.8 11.6 8.2 ESE 5.6 5.6 7.4 79 1010.3(0.0/3h) 20 -- -- --
22:00 12.5 12.4 8.8 ESE 5.6 5.6 7.4 78 1010.2(0.2/3h) 20 -- -- --
21:00 13.9 13.9 8.5 NNO 1.9 0.0 0.0 70 1010.3(0.3/3h) 20 -- -- --
20:00 16.7 16.7 8.1 NNO 1.9 3.7 3.7 57 1010.2(0.2/3h) 20 -- -- --
19:00 18.6 18.6 8.0 S 3.7 7.4 11.1 50 1010(-0.2/3h) 12 -- -- --
18:00 21.1 21.1 9.2 S 5.6 0.0 0.0 47 1009.7(-0.4/3h) 20 -- 0/0h
--
17:00 22.5 22.5 9.1 SSE 7.4 9.3 13.0 42 1010(-0.7/3h) 20 -- -- --
16:00 22.4 22.4 9.0 S 9.3 9.3 14.8 42 1010.2(-0.6/3h) 20 -- -- --
15:00 22.8 22.8 7.5 S 9.3 0.0 0.0 37 1010.2(-1.0/3h) 20 -- -- --
14:00 22.4 22.4 6.6 SSO 9.3 11.1 16.7 36 1010.7(-1.0/3h) 20 -- -- --
13:00 22.3 22.3 7.7 SSE 7.4 9.3 14.8 39 1010.8(-1.2/3h) 20 -- -- --
12:00 21.5 21.5 7.4 S 9.3 0.0 0.0 40 1011.2(-1.1/3h) 20 -- 0/0h
--
11:00 20.7 20.7 8.0 SSE 7.4 7.4 11.1 44 1011.7(-1.0/3h) 20 -- -- --
10:00 19.5 19.5 8.1 ESE 5.6 5.6 9.3 48 1012.2(-1.1/3h) 20 -- -- --
09:00 18.0 18.0 7.3 SE 5.6 0.0 0.0 50 1012.6(-1.1/3h) 20 -- -- --
08:00 16.4 16.4 7.4 ESE 5.6 5.6 7.4 55 1013(-0.8/3h) 20 -- -- --
07:00 14.2 14.2 8.9 NNO 1.9 3.7 3.7 70 1013.5(-0.5/3h) 20 -- -- --
06:00 10.7 10.7 7.0 NNO 1.9 0.0 0.0 78 1014(-0.7/3h) 20 -- 0/0h
--
05:00 9.6 9.1 6.1 E 5.6 7.4 7.4 79 1014(-1.3/3h) 20 -- -- --
04:00 8.6 7.5 5.7 E 7.4 7.4 9.3 82 1014.2(-1.6/3h) 20 -- -- --
03:00 9.1 8.1 5.6 E 7.4 0.0 0.0 79 1014.7(-1.6/3h) 20 -- -- --
02:00 9.6 9.1 5.7 E 5.6 5.6 7.4 77 1015.5(-1.5/3h) 20 -- -- --
01:00 8.9 8.3 5.5 E 5.6 5.6 5.6 79 1016(-0.9/3h) 20 -- -- --
00:00 9.6 9.6 6.0 ESE 3.7 0.0 0.0 78 1016.3(-0.6/3h) 20 -- 0/0h
--

1 Coordinated Universal Time. Actuellement il est 14:00 locale et 12:00 UTC.

2 Le vent souffle depuis la direction indiquée vers la direction oposée.

3 Les rafales max. sont disponible 40 min après l'heure du relevé.

4 Pour les stations d'altitude (plus de 600m) le géopotentiel du niveau le plus proche de la pression obligatoire est indiqué.

5 Les stations disposant d'un diffuseur peuvent indiquer "trace". Cela signifie que des précipitations ont touchés le sol mais que la quantité est inférieure à 0.1 mm.

Récapitulatif de la journée
Température [°C] Vent [km/h] Ensoleillement4 [h] Precipitations totale5 [mm] Pression [Hpa]
Min1 Max.2 Moy.3 Max. Min Max.
8.5 23.5 4.6 16.7 0 h 0 min 0 1009.7 1016.3

1 Température minimale relevée entre 18:00 UTC la veille et 18:00 UTC le jour donné.

2 Température maximale relevée entre 06:00 UTC le jour donné et 06:00 UTC le lendemain.

3 Vent moyen de la journée basé sur les relevés horaires.

4 Ensoleillement en heures relevé entre 06:00 UTC la veille et 06:00 UTC le jour donné.

5 Précipitations totales tombées entre 06:00 UTC la jour donné et 06:00 UTC le lendemain.

Graphiques horaires